| time (UTC) | temp C | wind direction | speed KPH | gust KPH | rain 1hr cm | rain 24hr cm | rain mn cm | humidity % | barometer mb |
| 20260906191246 | 29 | 106 | 6.4 | 6.4 | 0.00 | 0.00 | 0.00 | 75 | |
| 20260906190746 | 29 | 110 | 6.4 | 6.4 | 0.00 | 0.00 | 0.00 | 74 | |
| 20260906190240 | 29 | 148 | 3.2 | 6.4 | 0.00 | 0.00 | 0.00 | 75 | |
| 20260906185739 | 29 | 134 | 3.2 | 4.8 | 0.00 | 0.00 | 0.00 | 73 | |
| 20260906185238 | 29 | 149 | 3.2 | 4.8 | 0.00 | 0.00 | 0.00 | 74 | |
| 20260906184733 | 29 | 176 | 1.6 | 6.4 | 0.00 | 0.00 | 0.00 | 74 | |
| 20260906184228 | 29 | 170 | 1.6 | 4.8 | 0.00 | 0.00 | 0.00 | 75 | |
| 20260906183724 | 29 | 129 | 3.2 | 6.4 | 0.00 | 0.00 | 0.00 | 75 | |
| 20260906183221 | 29 | 169 | 3.2 | 3.2 | 0.00 | 0.00 | 0.00 | 75 | |
| 20260906182720 | 29 | 186 | 1.6 | 3.2 | 0.00 | 0.00 | 0.00 | 75 | |
| 20260906182216 | 29 | 161 | 6.4 | 9.7 | 0.00 | 0.00 | 0.00 | 75 | |
| 20260906181711 | 29 | 163 | 3.2 | 4.8 | 0.00 | 0.00 | 0.00 | 76 | |
| 20260906181208 | 29 | 196 | 3.2 | 4.8 | 0.00 | 0.00 | 0.00 | 75 | |
| 20260906180708 | 29 | 177 | 6.4 | 9.7 | 0.00 | 0.00 | 0.00 | 75 | |
| 20260906180202 | 28 | 148 | 4.8 | 12.9 | 0.00 | 0.00 | 0.00 | 75 | |
| 20260906175701 | 29 | 179 | 6.4 | 11.3 | 0.00 | 0.00 | 0.00 | 74 | |
| 20260906175156 | 28 | 176 | 6.4 | 11.3 | 0.00 | 0.00 | 0.00 | 74 | |
| 20260906174654 | 28 | 184 | 9.7 | 11.3 | 0.00 | 0.00 | 0.00 | 74 | |
| 20260906174149 | 28 | 181 | 6.4 | 9.7 | 0.00 | 0.00 | 0.00 | 74 | |
| 20260906173644 | 28 | 123 | 6.4 | 11.3 | 0.00 | 0.00 | 0.00 | 76 | |
| 20260906173140 | 28 | 188 | 8.0 | 11.3 | 0.00 | 0.00 | 0.00 | 78 | |
| 20260906172639 | 28 | 158 | 9.7 | 11.3 | 0.00 | 0.00 | 0.00 | 73 | |
| 20260906172135 | 28 | 199 | 6.4 | 11.3 | 0.00 | 0.00 | 0.00 | 74 | |
| 20260906171634 | 28 | 158 | 6.4 | 11.3 | 0.00 | 0.00 | 0.00 | 75 | |
| 20260906171130 | 28 | 170 | 8.0 | 11.3 | 0.00 | 0.00 | 0.00 | 76 | |
| 20260906170626 | 28 | 181 | 6.4 | 6.4 | 0.00 | 0.00 | 0.00 | 76 | |
| 20260906170125 | 28 | 182 | 6.4 | 6.4 | 0.00 | 0.00 | 0.00 | 72 | |
| 20260906165622 | 28 | 174 | 6.4 | 9.7 | 0.00 | 0.00 | 0.00 | 73 | |
| 20260906165117 | 28 | 174 | 8.0 | 9.7 | 0.00 | 0.00 | 0.00 | 73 | |
| 20260906164616 | 28 | 173 | 6.4 | 11.3 | 0.00 | 0.00 | 0.00 | 74 | |
| 20260906164112 | 28 | 170 | 6.4 | 11.3 | 0.00 | 0.00 | 0.00 | 73 | |
| 20260906163607 | 28 | 200 | 6.4 | 6.4 | 0.00 | 0.00 | 0.00 | 75 | |
| 20260906163103 | 27 | 136 | 6.4 | 9.7 | 0.00 | 0.00 | 0.00 | 76 | |
| 20260906162600 | 27 | 170 | 3.2 | 6.4 | 0.00 | 0.00 | 0.00 | 76 | |
| 20260906162055 | 27 | 134 | 9.7 | 11.3 | 0.00 | 0.00 | 0.00 | 77 | |
| 20260906161550 | 27 | 143 | 8.0 | 11.3 | 0.00 | 0.00 | 0.00 | 77 | |
| 20260906161048 | 28 | 180 | 8.0 | 9.7 | 0.00 | 0.00 | 0.00 | 76 | |
| 20260906160547 | 27 | 133 | 6.4 | 6.4 | 0.00 | 0.00 | 0.00 | 77 | |
| 20260906160046 | 27 | 180 | 4.8 | 9.7 | 0.00 | 0.00 | 0.00 | 77 | |
| 20260906155544 | 27 | 161 | 6.4 | 9.7 | 0.00 | 0.00 | 0.00 | 77 | |
| 20260906155040 | 27 | 122 | 1.6 | 3.2 | 0.00 | 0.00 | 0.00 | 81 | |
| 20260906154535 | 27 | 115 | 3.2 | 4.8 | 0.00 | 0.00 | 0.00 | 85 | |
| 20260906154034 | 27 | 65 | 3.2 | 6.4 | 0.00 | 0.00 | 0.00 | 85 | |
| 20260906153533 | 26 | 120 | 4.8 | 4.8 | 0.00 | 0.00 | 0.00 | 85 | |
| 20260906153029 | 26 | 72 | 6.4 | 9.7 | 0.00 | 0.00 | 0.00 | 87 | |
| 20260906152528 | 26 | 58 | 8.0 | 11.3 | 0.00 | 0.00 | 0.00 | 87 | |
| 20260906152027 | 26 | 116 | 4.8 | 6.4 | 0.00 | 0.00 | 0.00 | 84 | |
| 20260906151523 | 26 | 143 | 3.2 | 3.2 | 0.00 | 0.00 | 0.00 | 85 | |
| 20260906151024 | 25 | 92 | 0.0 | 4.8 | 0.00 | 0.00 | 0.00 | 90 | |
| 20260906150519 | 25 | 70 | 6.4 | 9.7 | 0.00 | 0.00 | 0.00 | 90 | |
| 20260906150014 | 26 | 91 | 3.2 | 6.4 | 0.00 | 0.00 | 0.00 | 86 | |
| 20260906145513 | 26 | 104 | 1.6 | 1.6 | 0.00 | 0.00 | 0.00 | 85 | |
| 20260906145009 | 25 | 38 | 0.0 | 3.2 | 0.00 | 0.00 | 0.00 | 86 | |
| 20260906144502 | 25 | 74 | 3.2 | 3.2 | 0.00 | 0.00 | 0.00 | 87 | |
| 20260906143957 | 25 | 161 | 1.6 | 3.2 | 0.00 | 0.00 | 0.00 | 87 | |
| 20260906143453 | 25 | 229 | 1.6 | 4.8 | 0.00 | 0.00 | 0.00 | 88 | |
| 20260906142949 | 25 | 185 | 3.2 | 4.8 | 0.00 | 0.00 | 0.00 | 88 | |
| 20260906142443 | 25 | 216 | 3.2 | 4.8 | 0.00 | 0.00 | 0.00 | 89 | |
| 20260906141938 | 24 | 253 | 4.8 | 6.4 | 0.00 | 0.00 | 0.00 | 90 | |
| 20260906141438 | 24 | 165 | 9.7 | 11.3 | 0.00 | 0.00 | 0.00 | 90 | |
| 20260906140938 | 24 | 146 | 8.0 | 12.9 | 0.00 | 0.00 | 0.00 | 91 | |
| 20260906140432 | 24 | 136 | 12.9 | 16.1 | 0.00 | 0.00 | 0.00 | 89 | |
| 20260906135930 | 24 | 128 | 11.3 | 14.5 | 0.00 | 0.00 | 0.00 | 89 | |
| 20260906135429 | 24 | 148 | 12.9 | 14.5 | 0.00 | 0.00 | 0.00 | 89 | |
| 20260906134926 | 24 | 159 | 11.3 | 14.5 | 0.00 | 0.00 | 0.00 | 90 | |
| 20260906134421 | 24 | 134 | 6.4 | 16.1 | 0.00 | 0.00 | 0.00 | 90 | |
| 20260906133915 | 24 | 130 | 11.3 | 14.5 | 0.00 | 0.00 | 0.00 | 90 | |
| 20260906133411 | 24 | 117 | 9.7 | 16.1 | 0.00 | 0.00 | 0.00 | 90 | |
| 20260906132907 | 24 | 115 | 8.0 | 14.5 | 0.00 | 0.00 | 0.00 | 90 | |
| 20260906132402 | 24 | 127 | 8.0 | 12.9 | 0.00 | 0.00 | 0.00 | 90 | |
| 20260906131857 | 24 | 145 | 9.7 | 12.9 | 0.00 | 0.00 | 0.00 | 91 | |
| 20260906131353 | 24 | 157 | 8.0 | 12.9 | 0.00 | 0.00 | 0.00 | 91 | |
| 20260906130848 | 24 | 119 | 6.4 | 12.9 | 0.00 | 0.00 | 0.00 | 91 | |
| 20260906130348 | 24 | 136 | 11.3 | 12.9 | 0.00 | 0.00 | 0.00 | 91 | |
| 20260906125847 | 23 | 137 | 9.7 | 12.9 | 0.00 | 0.00 | 0.00 | 91 | |
| 20260906125344 | 23 | 160 | 8.0 | 12.9 | 0.00 | 0.00 | 0.00 | 92 | |
| 20260906124839 | 23 | 154 | 6.4 | 12.9 | 0.00 | 0.00 | 0.00 | 92 | |
| 20260906124335 | 23 | 138 | 11.3 | 14.5 | 0.00 | 0.00 | 0.00 | 92 | |
| 20260906123834 | 23 | 139 | 6.4 | 11.3 | 0.00 | 0.00 | 0.00 | 92 | |
| 20260906123329 | 23 | 151 | 6.4 | 11.3 | 0.00 | 0.00 | 0.00 | 92 | |
| 20260906122829 | 23 | 140 | 6.4 | 11.3 | 0.00 | 0.00 | 0.00 | 92 | |
| 20260906122324 | 23 | 113 | 9.7 | 14.5 | 0.00 | 0.00 | 0.00 | 91 | |
| 20260906121821 | 23 | 124 | 8.0 | 12.9 | 0.00 | 0.00 | 0.00 | 91 | |
| 20260906121316 | 23 | 140 | 8.0 | 9.7 | 0.00 | 0.00 | 0.00 | 91 | |
| 20260906120813 | 23 | 149 | 6.4 | 9.7 | 0.00 | 0.00 | 0.00 | 92 | |
| 20260906120308 | 23 | 126 | 9.7 | 11.3 | 0.00 | 0.00 | 0.00 | 91 | |
| 20260906115804 | 23 | 152 | 8.0 | 11.3 | 0.00 | 0.00 | 0.00 | 91 | |
| 20260906115300 | 23 | 149 | 9.7 | 11.3 | 0.00 | 0.00 | 0.00 | 91 | |
| 20260906114759 | 23 | 115 | 8.0 | 12.9 | 0.00 | 0.00 | 0.00 | 91 | |
| 20260906114254 | 23 | 138 | 9.7 | 12.9 | 0.00 | 0.00 | 0.00 | 91 | |
| 20260906113749 | 23 | 119 | 8.0 | 11.3 | 0.00 | 0.00 | 0.00 | 91 | |
| 20260906113248 | 23 | 121 | 8.0 | 12.9 | 0.00 | 0.00 | 0.00 | 90 | |
| 20260906112748 | 23 | 125 | 6.4 | 9.7 | 0.00 | 0.00 | 0.00 | 90 | |
| 20260906112245 | 23 | 129 | 8.0 | 9.7 | 0.00 | 0.00 | 0.00 | 91 | |
| 20260906111744 | 23 | 136 | 6.4 | 11.3 | 0.00 | 0.00 | 0.00 | 92 | |
| 20260906111244 | 23 | 146 | 8.0 | 9.7 | 0.00 | 0.00 | 0.00 | 92 | |
| 20260906110739 | 23 | 158 | 6.4 | 6.4 | 0.00 | 0.00 | 0.00 | 92 | |
| 20260906110235 | 23 | 150 | 6.4 | 6.4 | 0.00 | 0.00 | 0.00 | 92 | |
| 20260906105734 | 23 | 145 | 8.0 | 9.7 | 0.00 | 0.00 | 0.00 | 92 | |
| 20260906105231 | 23 | 149 | 8.0 | 9.7 | 0.00 | 0.00 | 0.00 | 92 | |
| 20260906104731 | 23 | 155 | 6.4 | 6.4 | 0.00 | 0.00 | 0.00 | 92 | |
| 20260906104230 | 23 | 152 | 6.4 | 9.7 | 0.00 | 0.00 | 0.00 | 91 | |
| 20260906103727 | 23 | 154 | 8.0 | 9.7 | 0.00 | 0.00 | 0.00 | 91 | |
| 20260906103222 | 23 | 162 | 6.4 | 9.7 | 0.00 | 0.00 | 0.00 | 91 | |
| 20260906102718 | 23 | 153 | 8.0 | 9.7 | 0.00 | 0.00 | 0.00 | 91 | |
| 20260906102217 | 23 | 150 | 4.8 | 6.4 | 0.00 | 0.00 | 0.00 | 91 | |
| 20260906101712 | 23 | 135 | 6.4 | 9.7 | 0.00 | 0.00 | 0.00 | 90 | |
| 20260906101207 | 23 | 152 | 11.3 | 12.9 | 0.00 | 0.00 | 0.00 | 90 | |
| 20260906100703 | 23 | 141 | 8.0 | 11.3 | 0.00 | 0.00 | 0.00 | 90 | |
| 20260906100202 | 23 | 144 | 8.0 | 9.7 | 0.00 | 0.00 | 0.00 | 90 | |
| 20260906095657 | 23 | 151 | 6.4 | 6.4 | 0.00 | 0.00 | 0.00 | 91 | |
| 20260906095152 | 23 | 127 | 6.4 | 9.7 | 0.00 | 0.00 | 0.00 | 91 | |
| 20260906094651 | 23 | 134 | 6.4 | 9.7 | 0.00 | 0.00 | 0.00 | 91 | |
| 20260906094147 | 23 | 143 | 6.4 | 6.4 | 0.00 | 0.00 | 0.00 | 91 | |
| 20260906093644 | 23 | 143 | 6.4 | 6.4 | 0.00 | 0.00 | 0.00 | 91 | |
| 20260906093143 | 23 | 144 | 6.4 | 6.4 | 0.00 | 0.00 | 0.00 | 91 | |
| 20260906092639 | 23 | 133 | 6.4 | 6.4 | 0.00 | 0.00 | 0.00 | 91 | |
| 20260906092138 | 23 | 141 | 6.4 | 6.4 | 0.00 | 0.00 | 0.00 | 91 | |
| 20260906091635 | 23 | 148 | 6.4 | 6.4 | 0.00 | 0.00 | 0.00 | 91 | |
| 20260906091131 | 23 | 140 | 8.0 | 9.7 | 0.00 | 0.00 | 0.00 | 91 | |
| 20260906090627 | 23 | 151 | 6.4 | 6.4 | 0.00 | 0.00 | 0.00 | 91 | |
| 20260906090126 | 23 | 148 | 6.4 | 9.7 | 0.00 | 0.00 | 0.00 | 91 | |
| 20260906085625 | 23 | 143 | 6.4 | 6.4 | 0.00 | 0.00 | 0.00 | 91 | |
| 20260906085120 | 23 | 144 | 4.8 | 6.4 | 0.00 | 0.00 | 0.00 | 91 | |
| 20260906084615 | 23 | 144 | 6.4 | 6.4 | 0.00 | 0.00 | 0.00 | 91 | |
| 20260906084113 | 24 | 170 | 4.8 | 6.4 | 0.00 | 0.00 | 0.00 | 90 | |
| 20260906083609 | 24 | 130 | 6.4 | 11.3 | 0.00 | 0.00 | 0.00 | 89 | |
| 20260906083109 | 24 | 145 | 4.8 | 11.3 | 0.00 | 0.00 | 0.00 | 88 | |
| 20260906082604 | 24 | 135 | 6.4 | 9.7 | 0.00 | 0.00 | 0.00 | 89 | |
| 20260906082100 | 24 | 145 | 4.8 | 6.4 | 0.00 | 0.00 | 0.00 | 90 | |
| 20260906081556 | 24 | 151 | 6.4 | 9.7 | 0.00 | 0.00 | 0.00 | 89 | |
| 20260906081051 | 24 | 140 | 9.7 | 11.3 | 0.00 | 0.00 | 0.00 | 88 | |
| 20260906080548 | 24 | 150 | 9.7 | 12.9 | 0.00 | 0.00 | 0.00 | 88 | |
| 20260906080043 | 24 | 131 | 8.0 | 11.3 | 0.00 | 0.00 | 0.00 | 89 | |
| 20260906075537 | 24 | 146 | 6.4 | 9.7 | 0.00 | 0.00 | 0.00 | 88 | |
| 20260906075032 | 24 | 145 | 8.0 | 12.9 | 0.00 | 0.00 | 0.00 | 88 | |
| 20260906074527 | 24 | 122 | 9.7 | 11.3 | 0.00 | 0.00 | 0.00 | 88 | |
| 20260906074025 | 24 | 154 | 6.4 | 11.3 | 0.00 | 0.00 | 0.00 | 89 | |
| 20260906073520 | 24 | 146 | 6.4 | 6.4 | 0.00 | 0.00 | 0.00 | 89 | |
| 20260906073016 | 24 | 155 | 4.8 | 4.8 | 0.00 | 0.00 | 0.00 | 89 | |
| 20260906072511 | 24 | 163 | 4.8 | 11.3 | 0.00 | 0.00 | 0.00 | 88 | |
| 20260906072007 | 24 | 128 | 8.0 | 9.7 | 0.00 | 0.00 | 0.00 | 88 | |
| 20260906071503 | 24 | 155 | 6.4 | 9.7 | 0.00 | 0.00 | 0.00 | 88 | |
| 20260906070958 | 24 | 142 | 6.4 | 9.7 | 0.00 | 0.00 | 0.00 | 88 | |
| 20260906070455 | 24 | 123 | 8.0 | 9.7 | 0.00 | 0.00 | 0.00 | 89 | |
| 20260906065950 | 24 | 155 | 6.4 | 6.4 | 0.00 | 0.00 | 0.00 | 89 | |
| 20260906065449 | 24 | 150 | 6.4 | 9.7 | 0.00 | 0.00 | 0.00 | 89 | |
| 20260906064945 | 24 | 148 | 4.8 | 6.4 | 0.00 | 0.00 | 0.00 | 88 | |
| 20260906064442 | 24 | 149 | 6.4 | 9.7 | 0.00 | 0.00 | 0.00 | 88 | |
| 20260906063942 | 24 | 144 | 6.4 | 6.4 | 0.00 | 0.00 | 0.00 | 88 | |
| 20260906063438 | 24 | 156 | 4.8 | 9.7 | 0.00 | 0.00 | 0.00 | 88 | |
| 20260906062937 | 24 | 137 | 6.4 | 9.7 | 0.00 | 0.00 | 0.00 | 88 | |
| 20260906062432 | 24 | 154 | 6.4 | 6.4 | 0.00 | 0.00 | 0.00 | 89 | |
| 20260906061927 | 24 | 141 | 6.4 | 9.7 | 0.00 | 0.00 | 0.00 | 90 | |
| 20260906061418 | 24 | 143 | 4.8 | 6.4 | 0.00 | 0.00 | 0.00 | 90 | |
| 20260906060913 | 24 | 139 | 6.4 | 6.4 | 0.00 | 0.00 | 0.00 | 89 | |
| 20260906060410 | 25 | 144 | 4.8 | 9.7 | 0.00 | 0.00 | 0.00 | 87 | |
| 20260906055906 | 25 | 132 | 4.8 | 6.4 | 0.00 | 0.00 | 0.00 | 87 | |
| 20260906055402 | 25 | 121 | 6.4 | 9.7 | 0.00 | 0.00 | 0.00 | 86 | |
| 20260906054857 | 25 | 126 | 4.8 | 4.8 | 0.00 | 0.00 | 0.00 | 86 | |
| 20260906054351 | 25 | 117 | 3.2 | 6.4 | 0.00 | 0.00 | 0.00 | 85 | |
| 20260906053847 | 25 | 134 | 6.4 | 6.4 | 0.00 | 0.00 | 0.00 | 85 | |
| 20260906053343 | 25 | 129 | 4.8 | 6.4 | 0.00 | 0.00 | 0.00 | 84 | |
| 20260906052838 | 25 | 117 | 4.8 | 9.7 | 0.00 | 0.00 | 0.00 | 83 | |
| 20260906052335 | 25 | 111 | 4.8 | 6.4 | 0.00 | 0.00 | 0.00 | 83 | |
| 20260906051832 | 25 | 130 | 6.4 | 6.4 | 0.00 | 0.00 | 0.00 | 83 | |
| 20260906051331 | 25 | 109 | 6.4 | 9.7 | 0.00 | 0.00 | 0.00 | 82 | |
| 20260906050826 | 25 | 126 | 3.2 | 9.7 | 0.00 | 0.00 | 0.00 | 82 | |
| 20260906050322 | 25 | 138 | 4.8 | 6.4 | 0.00 | 0.00 | 0.00 | 82 | |
| 20260906045820 | 26 | 136 | 6.4 | 6.4 | 0.00 | 0.00 | 0.00 | 81 | |
| 20260906045314 | 26 | 134 | 4.8 | 6.4 | 0.00 | 0.00 | 0.00 | 81 | |
| 20260906044811 | 26 | 118 | 4.8 | 4.8 | 0.00 | 0.00 | 0.00 | 81 | |
| 20260906044305 | 26 | 113 | 4.8 | 6.4 | 0.00 | 0.00 | 0.00 | 80 | |
| 20260906043801 | 26 | 118 | 4.8 | 6.4 | 0.00 | 0.00 | 0.00 | 80 | |
| 20260906043257 | 26 | 135 | 3.2 | 4.8 | 0.00 | 0.00 | 0.00 | 81 | |
| 20260906042756 | 25 | 136 | 6.4 | 6.4 | 0.00 | 0.00 | 0.00 | 83 | |
| 20260906042256 | 26 | 153 | 6.4 | 6.4 | 0.00 | 0.00 | 0.00 | 81 | |
| 20260906041751 | 26 | 133 | 4.8 | 6.4 | 0.00 | 0.00 | 0.00 | 80 | |
| 20260906041246 | 26 | 122 | 4.8 | 4.8 | 0.00 | 0.00 | 0.00 | 79 | |
| 20260906040742 | 26 | 120 | 4.8 | 4.8 | 0.00 | 0.00 | 0.00 | 79 | |
| 20260906040237 | 27 | 117 | 4.8 | 6.4 | 0.00 | 0.00 | 0.00 | 78 | |
| 20260906035732 | 27 | 121 | 4.8 | 4.8 | 0.00 | 0.00 | 0.00 | 78 | |
| 20260906035228 | 27 | 99 | 6.4 | 6.4 | 0.00 | 0.00 | 0.00 | 77 | |
| 20260906034727 | 27 | 125 | 3.2 | 3.2 | 0.00 | 0.00 | 0.00 | 77 | |
| 20260906034223 | 27 | 126 | 3.2 | 4.8 | 0.00 | 0.00 | 0.00 | 77 | |
| 20260906033718 | 27 | 116 | 3.2 | 3.2 | 0.00 | 0.00 | 0.00 | 77 | |
| 20260906033218 | 27 | 158 | 0.0 | 0.0 | 0.00 | 0.00 | 0.00 | 78 | |
| 20260906032715 | 26 | 158 | 0.0 | 1.6 | 0.00 | 0.00 | 0.00 | 79 | |
| 20260906032215 | 26 | 157 | 1.6 | 3.2 | 0.00 | 0.00 | 0.00 | 79 | |
| 20260906031710 | 26 | 161 | 3.2 | 3.2 | 0.00 | 0.00 | 0.00 | 80 | |
| 20260906031206 | 26 | 155 | 3.2 | 3.2 | 0.00 | 0.00 | 0.00 | 80 | |
| 20260906030705 | 26 | 153 | 4.8 | 6.4 | 0.00 | 0.00 | 0.00 | 79 | |
| 20260906030201 | 26 | 161 | 4.8 | 6.4 | 0.00 | 0.00 | 0.00 | 80 | |
| 20260906025700 | 26 | 169 | 4.8 | 6.4 | 0.00 | 0.00 | 0.00 | 80 | |
| 20260906025200 | 26 | 167 | 3.2 | 4.8 | 0.00 | 0.00 | 0.00 | 81 | |
| 20260906024654 | 27 | 174 | 4.8 | 6.4 | 0.00 | 0.00 | 0.00 | 80 | |
| 20260906024153 | 27 | 147 | 6.4 | 6.4 | 0.00 | 0.00 | 0.00 | 78 | |
| 20260906023649 | 27 | 163 | 4.8 | 6.4 | 0.00 | 0.00 | 0.00 | 79 | |
| 20260906023149 | 27 | 164 | 4.8 | 4.8 | 0.00 | 0.00 | 0.00 | 78 | |
| 20260906022644 | 28 | 138 | 4.8 | 4.8 | 0.00 | 0.00 | 0.00 | 75 | |
| 20260906022140 | 28 | 142 | 3.2 | 4.8 | 0.00 | 0.00 | 0.00 | 75 | |
| 20260906021636 | 27 | 148 | 3.2 | 3.2 | 0.00 | 0.00 | 0.00 | 77 | |
| 20260906021135 | 28 | 167 | 1.6 | 1.6 | 0.00 | 0.00 | 0.00 | 78 | |
| 20260906020635 | 28 | 149 | 3.2 | 3.2 | 0.00 | 0.00 | 0.00 | 75 | |
| 20260906020130 | 28 | 137 | 3.2 | 3.2 | 0.00 | 0.00 | 0.00 | 74 | |
| 20260906015624 | 28 | 138 | 0.0 | 0.0 | 0.00 | 0.00 | 0.00 | 74 | |
| 20260906015123 | 29 | 137 | 0.0 | 0.0 | 0.00 | 0.00 | 0.00 | 73 | |
| 20260906014623 | 29 | 137 | 1.6 | 1.6 | 0.00 | 0.00 | 0.00 | 72 | |
| 20260906014119 | 29 | 137 | 0.0 | 0.0 | 0.00 | 0.00 | 0.00 | 72 | |
| 20260906013614 | 29 | 137 | 1.6 | 3.2 | 0.00 | 0.00 | 0.00 | 70 | |
| 20260906013109 | 30 | 133 | 3.2 | 3.2 | 0.00 | 0.00 | 0.00 | 69 | |
| 20260906012605 | 29 | 110 | 3.2 | 3.2 | 0.00 | 0.00 | 0.00 | 71 | |
| 20260906012105 | 29 | 141 | 3.2 | 4.8 | 0.00 | 0.00 | 0.00 | 74 | |
| 20260906011601 | 29 | 146 | 0.0 | 1.6 | 0.00 | 0.00 | 0.00 | 76 | |
| 20260906011101 | 29 | 145 | 0.0 | 1.6 | 0.00 | 0.00 | 0.00 | 76 | |
| 20260906010556 | 28 | 145 | 3.2 | 3.2 | 0.00 | 0.00 | 0.00 | 77 | |
| 20260906010052 | 29 | 151 | 4.8 | 4.8 | 0.00 | 0.00 | 0.00 | 76 | |
| 20260906005551 | 30 | 148 | 6.4 | 6.4 | 0.00 | 0.00 | 0.00 | 75 | |
| 20260906005051 | 29 | 153 | 6.4 | 6.4 | 0.00 | 0.00 | 0.00 | 75 | |
| 20260906004550 | 30 | 166 | 4.8 | 6.4 | 0.00 | 0.00 | 0.00 | 75 | |
| 20260906004045 | 30 | 165 | 6.4 | 6.4 | 0.00 | 0.00 | 0.00 | 74 | |
| 20260906003540 | 31 | 157 | 6.4 | 6.4 | 0.00 | 0.00 | 0.00 | 72 | |
| 20260906003037 | 31 | 146 | 8.0 | 9.7 | 0.00 | 0.00 | 0.00 | 68 | |
| 20260906002537 | 31 | 137 | 4.8 | 6.4 | 0.00 | 0.00 | 0.00 | 68 | |
| 20260906002032 | 32 | 143 | 4.8 | 6.4 | 0.00 | 0.00 | 0.00 | 66 | |
| 20260906001527 | 32 | 124 | 4.8 | 6.4 | 0.00 | 0.00 | 0.00 | 64 | |
| 20260906001021 | 32 | 131 | 4.8 | 4.8 | 0.00 | 0.00 | 0.00 | 64 | |
| 20260906000517 | 32 | 143 | 3.2 | 3.2 | 0.00 | 0.00 | 0.00 | 64 | |
| 20260906000012 | 32 | 148 | 3.2 | 3.2 | 0.00 | 0.00 | 0.00 | 66 | |
| 20260905235512 | 32 | 165 | 4.8 | 6.4 | 0.00 | 0.00 | 0.00 | 64 | |
| 20260905235007 | 32 | 149 | 6.4 | 9.7 | 0.00 | 0.00 | 0.00 | 63 | |
| 20260905234503 | 33 | 157 | 9.7 | 12.9 | 0.00 | 0.00 | 0.00 | 62 | |
| 20260905234002 | 33 | 142 | 8.0 | 12.9 | 0.00 | 0.00 | 0.00 | 62 | |
| 20260905233458 | 33 | 157 | 9.7 | 12.9 | 0.00 | 0.00 | 0.00 | 62 | |
| 20260905232956 | 33 | 149 | 8.0 | 12.9 | 0.00 | 0.00 | 0.00 | 61 | |
| 20260905232453 | 33 | 167 | 14.5 | 17.7 | 0.00 | 0.00 | 0.00 | 59 | |
| 20260905231949 | 33 | 155 | 11.3 | 17.7 | 0.00 | 0.00 | 0.00 | 58 | |
| 20260905231444 | 33 | 140 | 9.7 | 14.5 | 0.00 | 0.00 | 0.00 | 58 | |
| 20260905230940 | 33 | 149 | 6.4 | 12.9 | 0.00 | 0.00 | 0.00 | 58 | |
| 20260905230438 | 34 | 164 | 14.5 | 16.1 | 0.00 | 0.00 | 0.00 | 56 | |
| 20260905225937 | 34 | 148 | 11.3 | 14.5 | 0.00 | 0.00 | 0.00 | 55 | |
| 20260905225432 | 34 | 141 | 9.7 | 12.9 | 0.00 | 0.00 | 0.00 | 57 | |
| 20260905224927 | 34 | 149 | 11.3 | 16.1 | 0.00 | 0.00 | 0.00 | 56 | |
| 20260905224423 | 34 | 143 | 11.3 | 17.7 | 0.00 | 0.00 | 0.00 | 55 | |
| 20260905223922 | 34 | 145 | 12.9 | 17.7 | 0.00 | 0.00 | 0.00 | 56 | |
| 20260905223420 | 34 | 130 | 14.5 | 17.7 | 0.00 | 0.00 | 0.00 | 54 | |
| 20260905222914 | 34 | 126 | 14.5 | 20.9 | 0.00 | 0.00 | 0.00 | 54 | |
| 20260905222414 | 34 | 90 | 9.7 | 16.1 | 0.00 | 0.00 | 0.00 | 57 | |
| 20260905221910 | 34 | 140 | 9.7 | 14.5 | 0.00 | 0.00 | 0.00 | 56 | |
| 20260905221406 | 34 | 167 | 14.5 | 17.7 | 0.00 | 0.00 | 0.00 | 56 | |
| 20260905220902 | 34 | 171 | 17.7 | 20.9 | 0.00 | 0.00 | 0.00 | 57 | |
| 20260905220358 | 34 | 158 | 8.0 | 22.5 | 0.00 | 0.00 | 0.00 | 58 | |
| 20260905215857 | 34 | 141 | 16.1 | 22.5 | 0.00 | 0.00 | 0.00 | 57 | |
| 20260905215353 | 34 | 131 | 12.9 | 20.9 | 0.00 | 0.00 | 0.00 | 55 | |
| 20260905214849 | 34 | 138 | 9.7 | 17.7 | 0.00 | 0.00 | 0.00 | 57 | |
| 20260905214344 | 35 | 159 | 9.7 | 17.7 | 0.00 | 0.00 | 0.00 | 57 | |
| 20260905213839 | 34 | 127 | 14.5 | 17.7 | 0.00 | 0.00 | 0.00 | 56 | |
| 20260905213335 | 35 | 174 | 14.5 | 20.9 | 0.00 | 0.00 | 0.00 | 56 | |
| 20260905212835 | 34 | 157 | 14.5 | 17.7 | 0.00 | 0.00 | 0.00 | 57 | |
| 20260905212330 | 34 | 150 | 14.5 | 16.1 | 0.00 | 0.00 | 0.00 | 55 | |
| 20260905211830 | 33 | 108 | 9.7 | 16.1 | 0.00 | 0.00 | 0.00 | 65 | |
| 20260905211325 | 33 | 108 | 11.3 | 14.5 | 0.00 | 0.00 | 0.00 | 64 | |
| 20260905210822 | 33 | 56 | 8.0 | 12.9 | 0.00 | 0.00 | 0.00 | 64 | |
| 20260905210321 | 33 | 90 | 8.0 | 16.1 | 0.00 | 0.00 | 0.00 | 65 | |
| 20260905205820 | 33 | 83 | 9.7 | 14.5 | 0.00 | 0.00 | 0.00 | 67 | |
| 20260905205315 | 33 | 62 | 8.0 | 17.7 | 0.00 | 0.00 | 0.00 | 68 | |
| 20260905204815 | 33 | 84 | 12.9 | 17.7 | 0.00 | 0.00 | 0.00 | 66 | |
| 20260905204311 | 33 | 73 | 14.5 | 17.7 | 0.00 | 0.00 | 0.00 | 65 | |
| 20260905203809 | 33 | 49 | 9.7 | 17.7 | 0.00 | 0.00 | 0.00 | 67 | |
| 20260905203306 | 33 | 43 | 8.0 | 20.9 | 0.00 | 0.00 | 0.00 | 67 | |
| 20260905202800 | 32 | 85 | 19.3 | 27.4 | 0.00 | 0.00 | 0.00 | 67 | |
| 20260905202255 | 33 | 86 | 6.4 | 17.7 | 0.00 | 0.00 | 0.00 | 67 | |
| 20260905201751 | 32 | 49 | 6.4 | 17.7 | 0.00 | 0.00 | 0.00 | 69 | |
| 20260905201246 | 33 | 53 | 9.7 | 24.1 | 0.00 | 0.00 | 0.00 | 69 | |
| 20260905200741 | 33 | 57 | 17.7 | 25.7 | 0.00 | 0.00 | 0.00 | 65 | |
| 20260905200237 | 33 | 44 | 9.7 | 16.1 | 0.00 | 0.00 | 0.00 | 65 | |
| 20260905195735 | 33 | 40 | 4.8 | 14.5 | 0.00 | 0.00 | 0.00 | 65 | |
| 20260905195230 | 33 | 83 | 12.9 | 16.1 | 0.00 | 0.00 | 0.00 | 63 | |
| 20260905194726 | 32 | 59 | 9.7 | 12.9 | 0.00 | 0.00 | 0.00 | 65 | |
| 20260905194226 | 32 | 57 | 6.4 | 17.7 | 0.00 | 0.00 | 0.00 | 65 | |
| 20260905193725 | 33 | 75 | 12.9 | 20.9 | 0.00 | 0.00 | 0.00 | 63 | |
| 20260905193220 | 32 | 66 | 9.7 | 24.1 | 0.00 | 0.00 | 0.00 | 64 | |
| 20260905192715 | 33 | 50 | 12.9 | 17.7 | 0.00 | 0.00 | 0.00 | 61 | |
| 20260905192212 | 33 | 51 | 11.3 | 14.5 | 0.00 | 0.00 | 0.00 | 57 | |
| 20260905191711 | 33 | 42 | 6.4 | 29.0 | 0.00 | 0.00 | 0.00 | 59 |